sensor_id;sensor_type;location;lat;lon;timestamp;pressure;altitude;pressure_sealevel;temperature;humidity
59987;BME280;46181;51.498;5.392;2022-09-09T00:01:20;100680;;;18.96;63.49805
59987;BME280;46181;51.498;5.392;2022-09-09T00:05:48;100676.8;;;18.93;63.62891
59987;BME280;46181;51.498;5.392;2022-09-09T00:10:20;100669.4;;;18.92;63.65137
59987;BME280;46181;51.498;5.392;2022-09-09T00:14:49;100671.3;;;18.9;63.69531
59987;BME280;46181;51.498;5.392;2022-09-09T00:19:18;100664.5;;;18.87;63.66699
59987;BME280;46181;51.498;5.392;2022-09-09T00:23:45;100665.1;;;18.81;63.6709
59987;BME280;46181;51.498;5.392;2022-09-09T00:28:17;100667.3;;;18.75;63.77637
59987;BME280;46181;51.498;5.392;2022-09-09T00:32:43;100660.5;;;18.76;63.66309
59987;BME280;46181;51.498;5.392;2022-09-09T00:37:12;100663.4;;;18.74;63.64941
59987;BME280;46181;51.498;5.392;2022-09-09T00:41:54;100655.1;;;18.67;63.71875
59987;BME280;46181;51.498;5.392;2022-09-09T00:50:49;100645.3;;;18.57;63.81934
59987;BME280;46181;51.498;5.392;2022-09-09T00:55:17;100643.3;;;18.55;63.78223
59987;BME280;46181;51.498;5.392;2022-09-09T00:59:50;100647.1;;;18.54;63.76855
59987;BME280;46181;51.498;5.392;2022-09-09T01:04:15;100646.4;;;18.52;63.74414
59987;BME280;46181;51.498;5.392;2022-09-09T01:09:11;100642.8;;;18.4;64
59987;BME280;46181;51.498;5.392;2022-09-09T01:13:16;100640.9;;;18.44;63.8457
59987;BME280;46181;51.498;5.392;2022-09-09T01:17:52;100636.8;;;18.42;63.82031
59987;BME280;46181;51.498;5.392;2022-09-09T01:22:18;100633.5;;;18.37;63.91602
59987;BME280;46181;51.498;5.392;2022-09-09T01:26:44;100629;;;18.37;63.88184
59987;BME280;46181;51.498;5.392;2022-09-09T01:31:14;100625.8;;;18.34;63.91211
59987;BME280;46181;51.498;5.392;2022-09-09T01:35:50;100624.3;;;18.31;64.04492
59987;BME280;46181;51.498;5.392;2022-09-09T01:40:13;100626.8;;;18.32;64.02441
59987;BME280;46181;51.498;5.392;2022-09-09T01:44:43;100618.4;;;18.3;64.04297
59987;BME280;46181;51.498;5.392;2022-09-09T01:49:13;100614.5;;;18.28;64.10938
59987;BME280;46181;51.498;5.392;2022-09-09T01:53:42;100614.7;;;18.27;64.19922
59987;BME280;46181;51.498;5.392;2022-09-09T01:58:28;100604.5;;;18.18;64.44922
59987;BME280;46181;51.498;5.392;2022-09-09T02:02:48;100602.5;;;18.22;64.27148
59987;BME280;46181;51.498;5.392;2022-09-09T02:07:19;100592.6;;;18.2;64.25781
59987;BME280;46181;51.498;5.392;2022-09-09T02:11:43;100592.7;;;18.2;64.31543
59987;BME280;46181;51.498;5.392;2022-09-09T02:16:17;100595.5;;;18.19;64.35938
59987;BME280;46181;51.498;5.392;2022-09-09T02:20:43;100601.3;;;18.19;64.3252
59987;BME280;46181;51.498;5.392;2022-09-09T02:25:14;100598.9;;;18.17;64.3457
59987;BME280;46181;51.498;5.392;2022-09-09T02:29:44;100593.7;;;18.15;64.41016
59987;BME280;46181;51.498;5.392;2022-09-09T02:34:13;100589.4;;;18.14;64.39746
59987;BME280;46181;51.498;5.392;2022-09-09T02:38:45;100591.9;;;18.12;64.49805
59987;BME280;46181;51.498;5.392;2022-09-09T02:43:13;100581.9;;;18.13;64.42871
59987;BME280;46181;51.498;5.392;2022-09-09T02:47:45;100585.9;;;18.08;64.53809
59987;BME280;46181;51.498;5.392;2022-09-09T02:52:15;100580.9;;;18.09;64.52832
59987;BME280;46181;51.498;5.392;2022-09-09T02:56:47;100591.3;;;18.08;64.59375
59987;BME280;46181;51.498;5.392;2022-09-09T03:01:12;100593;;;18.09;64.53906
59987;BME280;46181;51.498;5.392;2022-09-09T03:05:42;100594.8;;;18.11;64.47168
59987;BME280;46181;51.498;5.392;2022-09-09T03:10:13;100592.7;;;18.1;64.48242
59987;BME280;46181;51.498;5.392;2022-09-09T03:14:42;100597.6;;;18.09;64.58496
59987;BME280;46181;51.498;5.392;2022-09-09T03:19:12;100605.8;;;18.14;64.5127
59987;BME280;46181;51.498;5.392;2022-09-09T03:23:42;100608.3;;;18.17;64.49414
59987;BME280;46181;51.498;5.392;2022-09-09T03:28:12;100606.6;;;18.23;64.42188
59987;BME280;46181;51.498;5.392;2022-09-09T03:32:42;100610.4;;;18.27;64.40527
59987;BME280;46181;51.498;5.392;2022-09-09T03:37:12;100608.4;;;18.33;64.28711
59987;BME280;46181;51.498;5.392;2022-09-09T03:41:42;100603.2;;;18.28;64.2793
59987;BME280;46181;51.498;5.392;2022-09-09T03:46:12;100601.4;;;18.25;64.41406
59987;BME280;46181;51.498;5.392;2022-09-09T03:50:42;100599.8;;;18.23;64.45703
59987;BME280;46181;51.498;5.392;2022-09-09T03:55:13;100598.2;;;18.21;64.56738
59987;BME280;46181;51.498;5.392;2022-09-09T03:59:42;100596.5;;;18.2;64.69238
59987;BME280;46181;51.498;5.392;2022-09-09T04:04:12;100597.2;;;18.2;64.74902
59987;BME280;46181;51.498;5.392;2022-09-09T04:08:42;100591.5;;;18.17;64.76855
59987;BME280;46181;51.498;5.392;2022-09-09T04:13:12;100588.9;;;18.19;64.94238
59987;BME280;46181;51.498;5.392;2022-09-09T04:17:42;100592.5;;;18.21;64.95605
59987;BME280;46181;51.498;5.392;2022-09-09T04:22:12;100592.5;;;18.25;65.13281
59987;BME280;46181;51.498;5.392;2022-09-09T04:26:43;100583.1;;;18.36;65.11523
59987;BME280;46181;51.498;5.392;2022-09-09T04:31:18;100578.1;;;18.39;65.0625
59987;BME280;46181;51.498;5.392;2022-09-09T04:35:43;100579.8;;;18.41;65.15723
59987;BME280;46181;51.498;5.392;2022-09-09T04:40:13;100575.2;;;18.38;65.34766
59987;BME280;46181;51.498;5.392;2022-09-09T04:44:43;100581.4;;;18.33;65.44238
59987;BME280;46181;51.498;5.392;2022-09-09T04:49:12;100572.6;;;18.34;65.43359
59987;BME280;46181;51.498;5.392;2022-09-09T04:53:42;100569.3;;;18.33;65.56836
59987;BME280;46181;51.498;5.392;2022-09-09T04:58:16;100565.5;;;18.39;65.58887
59987;BME280;46181;51.498;5.392;2022-09-09T05:02:46;100560.8;;;18.47;65.50977
59987;BME280;46181;51.498;5.392;2022-09-09T05:07:12;100566.7;;;18.51;65.33203
59987;BME280;46181;51.498;5.392;2022-09-09T05:11:42;100566.7;;;18.49;65.41016
59987;BME280;46181;51.498;5.392;2022-09-09T05:16:13;100562.2;;;18.47;65.66992
59987;BME280;46181;51.498;5.392;2022-09-09T05:20:42;100566.7;;;18.53;65.71289
59987;BME280;46181;51.498;5.392;2022-09-09T05:25:13;100563.3;;;18.55;65.61328
59987;BME280;46181;51.498;5.392;2022-09-09T05:29:42;100560.3;;;18.55;65.7168
59987;BME280;46181;51.498;5.392;2022-09-09T05:34:12;100560.6;;;18.56;65.92285
59987;BME280;46181;51.498;5.392;2022-09-09T05:38:43;100563.3;;;18.61;66.13574
59987;BME280;46181;51.498;5.392;2022-09-09T05:43:13;100567.3;;;18.72;66.17578
59987;BME280;46181;51.498;5.392;2022-09-09T05:47:43;100567.3;;;18.87;66.08301
59987;BME280;46181;51.498;5.392;2022-09-09T05:52:12;100581.6;;;18.99;65.95313
59987;BME280;46181;51.498;5.392;2022-09-09T05:56:42;100576.8;;;19.09;66.00293
59987;BME280;46181;51.498;5.392;2022-09-09T06:01:15;100578.1;;;19.2;66.04102
59987;BME280;46181;51.498;5.392;2022-09-09T06:05:42;100578.6;;;19.33;66.00391
59987;BME280;46181;51.498;5.392;2022-09-09T06:10:13;100577.2;;;19.54;65.92969
59987;BME280;46181;51.498;5.392;2022-09-09T06:14:42;100575;;;19.76;65.75684
59987;BME280;46181;51.498;5.392;2022-09-09T06:19:13;100578.1;;;20.01;65.5293
59987;BME280;46181;51.498;5.392;2022-09-09T06:23:43;100581.5;;;20.21;65.24707
59987;BME280;46181;51.498;5.392;2022-09-09T06:28:12;100586;;;20.24;64.73633
59987;BME280;46181;51.498;5.392;2022-09-09T06:32:42;100575.8;;;20.1;64.91113
59987;BME280;46181;51.498;5.392;2022-09-09T06:37:13;100586.1;;;20.05;65.09863
59987;BME280;46181;51.498;5.392;2022-09-09T06:41:42;100580.6;;;20.05;64.93848
59987;BME280;46181;51.498;5.392;2022-09-09T06:46:15;100576.9;;;20.03;65.11914
59987;BME280;46181;51.498;5.392;2022-09-09T06:50:42;100574.2;;;20.12;65.01855
59987;BME280;46181;51.498;5.392;2022-09-09T06:55:13;100574.2;;;20.23;64.90723
59987;BME280;46181;51.498;5.392;2022-09-09T06:59:43;100576;;;20.26;64.7168
59987;BME280;46181;51.498;5.392;2022-09-09T07:04:13;100573;;;20.41;64.79688
59987;BME280;46181;51.498;5.392;2022-09-09T07:08:43;100585;;;20.76;64.55859
59987;BME280;46181;51.498;5.392;2022-09-09T07:13:12;100583.1;;;21.1;63.99805
59987;BME280;46181;51.498;5.392;2022-09-09T07:17:42;100576;;;21.34;63.31738
59987;BME280;46181;51.498;5.392;2022-09-09T07:22:12;100579.1;;;21.42;62.70703
59987;BME280;46181;51.498;5.392;2022-09-09T07:26:43;100567.6;;;21.57;62.41699
59987;BME280;46181;51.498;5.392;2022-09-09T07:35:42;100576.8;;;21.67;62.13086
59987;BME280;46181;51.498;5.392;2022-09-09T07:40:13;100583.1;;;21.9;61.6543
59987;BME280;46181;51.498;5.392;2022-09-09T07:44:42;100573.9;;;21.95;61.43164
59987;BME280;46181;51.498;5.392;2022-09-09T07:49:13;100572.1;;;22;61.0918
59987;BME280;46181;51.498;5.392;2022-09-09T07:53:43;100570.9;;;22.08;60.83789
59987;BME280;46181;51.498;5.392;2022-09-09T07:58:12;100570.2;;;22.15;60.59375
59987;BME280;46181;51.498;5.392;2022-09-09T08:02:43;100571.2;;;22.34;60.28418
59987;BME280;46181;51.498;5.392;2022-09-09T08:07:13;100577.3;;;22.49;59.53027
59987;BME280;46181;51.498;5.392;2022-09-09T08:11:43;100576.4;;;22.54;59.22363
59987;BME280;46181;51.498;5.392;2022-09-09T08:16:18;100572;;;22.65;59.12109
59987;BME280;46181;51.498;5.392;2022-09-09T08:20:44;100576;;;22.79;58.41211
59987;BME280;46181;51.498;5.392;2022-09-09T08:25:13;100575.4;;;22.88;57.95996
59987;BME280;46181;51.498;5.392;2022-09-09T08:29:43;100573.8;;;22.93;57.5957
59987;BME280;46181;51.498;5.392;2022-09-09T08:34:13;100576.5;;;22.97;57.13867
59987;BME280;46181;51.498;5.392;2022-09-09T08:38:43;100580;;;23;56.73633
59987;BME280;46181;51.498;5.392;2022-09-09T08:43:13;100586.3;;;22.89;56.49023
59987;BME280;46181;51.498;5.392;2022-09-09T08:47:50;100586.2;;;22.73;56.67969
59987;BME280;46181;51.498;5.392;2022-09-09T08:52:19;100589.2;;;22.72;56.79395
59987;BME280;46181;51.498;5.392;2022-09-09T08:56:44;100592.4;;;22.93;56.27539
59987;BME280;46181;51.498;5.392;2022-09-09T09:01:29;100594.7;;;23.05;56.16309
59987;BME280;46181;51.498;5.392;2022-09-09T09:05:47;100602;;;23.14;55.72363
59987;BME280;46181;51.498;5.392;2022-09-09T09:10:20;100607.8;;;23.14;55.51367
59987;BME280;46181;51.498;5.392;2022-09-09T09:14:44;100603.5;;;23.2;55.40527
59987;BME280;46181;51.498;5.392;2022-09-09T09:19:14;100603.8;;;23.24;55.06348
59987;BME280;46181;51.498;5.392;2022-09-09T09:23:50;100617.8;;;23.15;55.04004
59987;BME280;46181;51.498;5.392;2022-09-09T09:28:22;100622.9;;;23.05;55.21289
59987;BME280;46181;51.498;5.392;2022-09-09T09:32:44;100619.7;;;23.04;55.13184
59987;BME280;46181;51.498;5.392;2022-09-09T09:37:22;100617.3;;;23.22;55.26855
59987;BME280;46181;51.498;5.392;2022-09-09T09:41:47;100612.7;;;23.34;54.81934
59987;BME280;46181;51.498;5.392;2022-09-09T09:46:21;100610.3;;;23.31;54.89746
59987;BME280;46181;51.498;5.392;2022-09-09T09:50:46;100608;;;23.4;54.7334
59987;BME280;46181;51.498;5.392;2022-09-09T09:55:15;100616.9;;;23.34;54.51758
59987;BME280;46181;51.498;5.392;2022-09-09T09:59:46;100617;;;23.16;54.53027
59987;BME280;46181;51.498;5.392;2022-09-09T10:04:23;100611.9;;;22.68;55.88477
59987;BME280;46181;51.498;5.392;2022-09-09T10:08:52;100611.7;;;22.44;57.16309
59987;BME280;46181;51.498;5.392;2022-09-09T10:13:19;100613.8;;;22.4;57.63184
59987;BME280;46181;51.498;5.392;2022-09-09T10:17:48;100614.8;;;22.56;57.86133
59987;BME280;46181;51.498;5.392;2022-09-09T10:22:21;100620;;;22.65;58.08008
59987;BME280;46181;51.498;5.392;2022-09-09T10:26:49;100620.5;;;22.53;58.21582
59987;BME280;46181;51.498;5.392;2022-09-09T10:31:21;100632.1;;;22.37;58.55371
59987;BME280;46181;51.498;5.392;2022-09-09T10:35:45;100635;;;22.43;58.70117
59987;BME280;46181;51.498;5.392;2022-09-09T10:40:26;100635.2;;;22.4;58.80078
59987;BME280;46181;51.498;5.392;2022-09-09T10:44:53;100627.1;;;22.4;58.93945
59987;BME280;46181;51.498;5.392;2022-09-09T10:49:24;100632.2;;;22.55;59.09863
59987;BME280;46181;51.498;5.392;2022-09-09T10:53:58;100625.5;;;22.79;59.01367
59987;BME280;46181;51.498;5.392;2022-09-09T10:58:14;100626.5;;;23.01;58.72949
59987;BME280;46181;51.498;5.392;2022-09-09T11:02:43;100627.5;;;23.02;58.5918
59987;BME280;46181;51.498;5.392;2022-09-09T11:07:17;100622.2;;;22.98;58.72656
59987;BME280;46181;51.498;5.392;2022-09-09T11:11:47;100624.7;;;22.99;58.88965
59987;BME280;46181;51.498;5.392;2022-09-09T11:16:23;100624.6;;;23.09;58.99609
59987;BME280;46181;51.498;5.392;2022-09-09T11:20:43;100625.5;;;23.16;58.86523
59987;BME280;46181;51.498;5.392;2022-09-09T11:25:17;100623.4;;;22.89;60.04395
59987;BME280;46181;51.498;5.392;2022-09-09T11:29:58;100620.9;;;22.72;60.62305
59987;BME280;46181;51.498;5.392;2022-09-09T11:34:31;100617.9;;;22.55;60.83301
59987;BME280;46181;51.498;5.392;2022-09-09T11:38:49;100613.1;;;22.49;60.70801
59987;BME280;46181;51.498;5.392;2022-09-09T11:43:17;100619;;;22.42;60.96387
59987;BME280;46181;51.498;5.392;2022-09-09T11:47:50;100619.4;;;22.48;60.98438
59987;BME280;46181;51.498;5.392;2022-09-09T11:52:25;100628;;;22.53;61.32617
59987;BME280;46181;51.498;5.392;2022-09-09T11:56:46;100620.4;;;22.63;61.18945
59987;BME280;46181;51.498;5.392;2022-09-09T12:01:33;100615.1;;;22.47;61.51465
59987;BME280;46181;51.498;5.392;2022-09-09T12:05:51;100619.7;;;22.51;62.16797
59987;BME280;46181;51.498;5.392;2022-09-09T12:10:28;100613.1;;;22.85;62.2832
59987;BME280;46181;51.498;5.392;2022-09-09T12:14:58;100614;;;23.2;61.75293
59987;BME280;46181;51.498;5.392;2022-09-09T12:19:23;100614.3;;;23.26;60.90527
59987;BME280;46181;51.498;5.392;2022-09-09T12:23:47;100611;;;23.22;60.56348
59987;BME280;46181;51.498;5.392;2022-09-09T12:28:20;100615.9;;;23.27;60.35059
59987;BME280;46181;51.498;5.392;2022-09-09T12:32:43;100604;;;23.45;59.69141
59987;BME280;46181;51.498;5.392;2022-09-09T12:37:26;100609.3;;;23.54;59.34375
59987;BME280;46181;51.498;5.392;2022-09-09T12:41:50;100599.5;;;23.52;59.08691
59987;BME280;46181;51.498;5.392;2022-09-09T12:46:20;100597.9;;;23.3;59.17285
59987;BME280;46181;51.498;5.392;2022-09-09T12:50:48;100594.3;;;22.97;59.89453
59987;BME280;46181;51.498;5.392;2022-09-09T12:55:19;100587.3;;;22.63;60.80664
59987;BME280;46181;51.498;5.392;2022-09-09T12:59:48;100545.2;;;22.09;61.68164
59987;BME280;46181;51.498;5.392;2022-09-09T13:04:24;100602.8;;;21.78;63.0127
59987;BME280;46181;51.498;5.392;2022-09-09T13:08:43;100586.9;;;21.97;64.30762
59987;BME280;46181;51.498;5.392;2022-09-09T13:13:17;100585.3;;;22.44;64.32715
59987;BME280;46181;51.498;5.392;2022-09-09T13:17:48;100581.6;;;22.83;64.11816
59987;BME280;46181;51.498;5.392;2022-09-09T13:22:23;100584.2;;;23.3;64.3252
59987;BME280;46181;51.498;5.392;2022-09-09T13:26:43;100578.1;;;23.8;62.94727
59987;BME280;46181;51.498;5.392;2022-09-09T13:31:22;100584.8;;;23.86;62.00684
59987;BME280;46181;51.498;5.392;2022-09-09T13:35:49;100586.1;;;24.09;61.26172
59987;BME280;46181;51.498;5.392;2022-09-09T13:40:17;100578.6;;;24.2;59.78027
59987;BME280;46181;51.498;5.392;2022-09-09T13:44:45;100581.9;;;24;59.1377
59987;BME280;46181;51.498;5.392;2022-09-09T13:49:24;100585.8;;;23.88;58.84277
59987;BME280;46181;51.498;5.392;2022-09-09T13:53:43;100582.4;;;23.8;58.60059
59987;BME280;46181;51.498;5.392;2022-09-09T13:58:18;100583;;;23.99;59.04297
59987;BME280;46181;51.498;5.392;2022-09-09T14:02:43;100569.1;;;24.27;58.1748
59987;BME280;46181;51.498;5.392;2022-09-09T14:07:14;100573.4;;;24.15;57.48633
59987;BME280;46181;51.498;5.392;2022-09-09T14:11:43;100575.9;;;24.07;57.83594
59987;BME280;46181;51.498;5.392;2022-09-09T14:16:13;100568.8;;;24.26;57.44141
59987;BME280;46181;51.498;5.392;2022-09-09T14:20:43;100571.6;;;24.45;57.15234
59987;BME280;46181;51.498;5.392;2022-09-09T14:25:14;100567;;;24.52;56.31152
59987;BME280;46181;51.498;5.392;2022-09-09T14:29:43;100569.2;;;24.5;56.125
59987;BME280;46181;51.498;5.392;2022-09-09T14:34:13;100563.2;;;24.62;55.40625
59987;BME280;46181;51.498;5.392;2022-09-09T14:38:44;100563.2;;;24.59;53.88965
59987;BME280;46181;51.498;5.392;2022-09-09T14:43:13;100562.7;;;24.61;54.25391
59987;BME280;46181;51.498;5.392;2022-09-09T14:47:43;100557.1;;;24.69;53.05273
59987;BME280;46181;51.498;5.392;2022-09-09T14:52:13;100556.5;;;24.67;53.31738
59987;BME280;46181;51.498;5.392;2022-09-09T14:56:43;100561.8;;;24.7;53.35645
59987;BME280;46181;51.498;5.392;2022-09-09T15:01:18;100555.3;;;24.85;53.26855
59987;BME280;46181;51.498;5.392;2022-09-09T15:05:44;100549.6;;;25.03;52.05566
59987;BME280;46181;51.498;5.392;2022-09-09T15:10:14;100560.5;;;24.98;51.88574
59987;BME280;46181;51.498;5.392;2022-09-09T15:14:43;100558.3;;;24.82;51.90332
59987;BME280;46181;51.498;5.392;2022-09-09T15:19:13;100592.1;;;24.52;51.91406
59987;BME280;46181;51.498;5.392;2022-09-09T15:23:44;100614.4;;;24.03;52.24219
59987;BME280;46181;51.498;5.392;2022-09-09T15:28:13;100620;;;22.65;55.81152
59987;BME280;46181;51.498;5.392;2022-09-09T15:32:43;100608;;;21.84;58.62305
59987;BME280;46181;51.498;5.392;2022-09-09T15:37:13;100605.3;;;21.35;60.93457
59987;BME280;46181;51.498;5.392;2022-09-09T15:41:43;100595.1;;;21.22;62.0918
59987;BME280;46181;51.498;5.392;2022-09-09T15:46:28;100595;;;21.21;61.81543
59987;BME280;46181;51.498;5.392;2022-09-09T15:50:43;100592.2;;;21.22;61.83984
59987;BME280;46181;51.498;5.392;2022-09-09T15:55:14;100596.1;;;21.3;62.01172
59987;BME280;46181;51.498;5.392;2022-09-09T15:59:43;100598.2;;;21.36;61.8916
59987;BME280;46181;51.498;5.392;2022-09-09T16:04:13;100605.4;;;21.45;62.10254
59987;BME280;46181;51.498;5.392;2022-09-09T16:08:45;100610.8;;;21.56;62.09277
59987;BME280;46181;51.498;5.392;2022-09-09T16:13:13;100616.7;;;21.62;61.99707
59987;BME280;46181;51.498;5.392;2022-09-09T16:17:43;100638.1;;;21.65;61.65527
59987;BME280;46181;51.498;5.392;2022-09-09T16:22:13;100659.8;;;21.46;61.88281
59987;BME280;46181;51.498;5.392;2022-09-09T16:26:45;100647.5;;;21.25;62.18848
59987;BME280;46181;51.498;5.392;2022-09-09T16:31:17;100650.1;;;21.14;62.46191
59987;BME280;46181;51.498;5.392;2022-09-09T16:35:44;100656.5;;;20.98;62.72559
59987;BME280;46181;51.498;5.392;2022-09-09T16:40:14;100651.8;;;20.77;63.08789
59987;BME280;46181;51.498;5.392;2022-09-09T16:44:43;100667.9;;;20.67;63.39551
59987;BME280;46181;51.498;5.392;2022-09-09T16:49:14;100670.1;;;20.5;63.58984
59987;BME280;46181;51.498;5.392;2022-09-09T16:53:44;100659.9;;;20.37;63.81445
59987;BME280;46181;51.498;5.392;2022-09-09T16:58:13;100657.7;;;20.35;63.95996
59987;BME280;46181;51.498;5.392;2022-09-09T17:02:43;100654.2;;;20.33;63.97949
59987;BME280;46181;51.498;5.392;2022-09-09T17:07:13;100653;;;20.31;64.02246
59987;BME280;46181;51.498;5.392;2022-09-09T17:11:43;100651.1;;;20.31;64.19531
59987;BME280;46181;51.498;5.392;2022-09-09T17:16:17;100648.5;;;20.31;64.32129
59987;BME280;46181;51.498;5.392;2022-09-09T17:20:43;100647.9;;;20.38;64.2627
59987;BME280;46181;51.498;5.392;2022-09-09T17:25:14;100649.5;;;20.43;63.9834
59987;BME280;46181;51.498;5.392;2022-09-09T17:29:43;100655.4;;;20.5;63.73926
59987;BME280;46181;51.498;5.392;2022-09-09T17:34:13;100664;;;20.58;63.71777
59987;BME280;46181;51.498;5.392;2022-09-09T17:38:43;100666.1;;;20.76;63.53516
59987;BME280;46181;51.498;5.392;2022-09-09T17:43:13;100666.3;;;20.86;63.25098
59987;BME280;46181;51.498;5.392;2022-09-09T17:47:43;100670;;;20.93;62.97266
59987;BME280;46181;51.498;5.392;2022-09-09T17:52:13;100675.8;;;20.91;62.86621
59987;BME280;46181;51.498;5.392;2022-09-09T17:56:44;100681.5;;;20.85;62.90332
59987;BME280;46181;51.498;5.392;2022-09-09T18:01:18;100682.9;;;20.78;62.96387
59987;BME280;46181;51.498;5.392;2022-09-09T18:05:43;100686.7;;;20.74;63.03809
59987;BME280;46181;51.498;5.392;2022-09-09T18:10:14;100691;;;20.68;63.0752
59987;BME280;46181;51.498;5.392;2022-09-09T18:14:43;100696;;;20.61;63.1123
59987;BME280;46181;51.498;5.392;2022-09-09T18:19:17;100697.5;;;20.51;63.26953
59987;BME280;46181;51.498;5.392;2022-09-09T18:23:45;100710.4;;;20.46;63.35449
59987;BME280;46181;51.498;5.392;2022-09-09T18:28:13;100715.1;;;20.41;63.48535
59987;BME280;46181;51.498;5.392;2022-09-09T18:32:43;100719.7;;;20.38;63.51563
59987;BME280;46181;51.498;5.392;2022-09-09T18:37:13;100717.6;;;20.4;63.50684
59987;BME280;46181;51.498;5.392;2022-09-09T18:41:45;100727.4;;;20.41;63.49707
59987;BME280;46181;51.498;5.392;2022-09-09T18:46:15;100740.1;;;20.42;63.47461
59987;BME280;46181;51.498;5.392;2022-09-09T18:50:43;100737.4;;;20.44;63.35059
59987;BME280;46181;51.498;5.392;2022-09-09T18:55:14;100738.1;;;20.43;63.31641
59987;BME280;46181;51.498;5.392;2022-09-09T18:59:43;100739.5;;;20.45;63.31934
59987;BME280;46181;51.498;5.392;2022-09-09T19:04:15;100744.4;;;20.4;63.40332
59987;BME280;46181;51.498;5.392;2022-09-09T19:08:46;100750.4;;;20.36;63.46582
59987;BME280;46181;51.498;5.392;2022-09-09T19:13:13;100748.8;;;20.32;63.51953
59987;BME280;46181;51.498;5.392;2022-09-09T19:17:43;100756.1;;;20.3;63.56152
59987;BME280;46181;51.498;5.392;2022-09-09T19:22:13;100761.2;;;20.32;63.57617
59987;BME280;46181;51.498;5.392;2022-09-09T19:26:45;100767.4;;;20.3;63.65332
59987;BME280;46181;51.498;5.392;2022-09-09T19:31:18;100777.3;;;20.3;63.66504
59987;BME280;46181;51.498;5.392;2022-09-09T19:35:43;100778.8;;;20.31;63.55176
59987;BME280;46181;51.498;5.392;2022-09-09T19:40:14;100778.4;;;20.22;63.65332
59987;BME280;46181;51.498;5.392;2022-09-09T19:44:43;100781.5;;;20.1;63.85547
59987;BME280;46181;51.498;5.392;2022-09-09T19:49:14;100788.3;;;20.08;64.05762
59987;BME280;46181;51.498;5.392;2022-09-09T19:53:46;100793.2;;;20.12;64.15723
59987;BME280;46181;51.498;5.392;2022-09-09T19:58:13;100790.4;;;20.16;64.15137
59987;BME280;46181;51.498;5.392;2022-09-09T20:02:43;100787;;;20.19;64.25684
59987;BME280;46181;51.498;5.392;2022-09-09T20:07:13;100792.1;;;20.2;64.24805
59987;BME280;46181;51.498;5.392;2022-09-09T20:11:44;100798.6;;;20.16;64.32227
59987;BME280;46181;51.498;5.392;2022-09-09T20:16:15;100801.6;;;20.1;64.45215
59987;BME280;46181;51.498;5.392;2022-09-09T20:20:47;100809.8;;;20.03;64.59082
59987;BME280;46181;51.498;5.392;2022-09-09T20:25:13;100806.8;;;20.04;64.57129
59987;BME280;46181;51.498;5.392;2022-09-09T20:29:43;100804.4;;;20.04;64.63965
59987;BME280;46181;51.498;5.392;2022-09-09T20:34:14;100810.7;;;20.03;64.70605
59987;BME280;46181;51.498;5.392;2022-09-09T20:38:44;100810.6;;;20.05;64.63965
59987;BME280;46181;51.498;5.392;2022-09-09T20:43:13;100810.4;;;20.06;64.67676
59987;BME280;46181;51.498;5.392;2022-09-09T20:47:43;100807.6;;;20.12;64.58105
59987;BME280;46181;51.498;5.392;2022-09-09T20:52:13;100799.2;;;20.15;64.55176
59987;BME280;46181;51.498;5.392;2022-09-09T20:56:44;100802.6;;;20.15;64.4834
59987;BME280;46181;51.498;5.392;2022-09-09T21:01:14;100801.4;;;20.15;64.51758
59987;BME280;46181;51.498;5.392;2022-09-09T21:05:43;100797.8;;;20.07;64.58594
59987;BME280;46181;51.498;5.392;2022-09-09T21:10:14;100801.1;;;20.02;64.71582
59987;BME280;46181;51.498;5.392;2022-09-09T21:14:43;100804;;;19.95;64.69434
59987;BME280;46181;51.498;5.392;2022-09-09T21:19:13;100806.7;;;19.88;64.84473
59987;BME280;46181;51.498;5.392;2022-09-09T21:23:44;100802.9;;;19.8;64.94824
59987;BME280;46181;51.498;5.392;2022-09-09T21:28:14;100800.8;;;19.77;65.00098
59987;BME280;46181;51.498;5.392;2022-09-09T21:32:43;100802.8;;;19.74;65.07715
59987;BME280;46181;51.498;5.392;2022-09-09T21:37:13;100798.6;;;19.72;65.08594
59987;BME280;46181;51.498;5.392;2022-09-09T21:41:43;100793.4;;;19.67;65.1582
59987;BME280;46181;51.498;5.392;2022-09-09T21:46:18;100797;;;19.58;65.37598
59987;BME280;46181;51.498;5.392;2022-09-09T21:50:47;100792;;;19.53;65.40234
59987;BME280;46181;51.498;5.392;2022-09-09T21:55:14;100789.5;;;19.51;65.33008
59987;BME280;46181;51.498;5.392;2022-09-09T21:59:43;100791.2;;;19.45;65.36719
59987;BME280;46181;51.498;5.392;2022-09-09T22:04:13;100795;;;19.41;65.4873
59987;BME280;46181;51.498;5.392;2022-09-09T22:08:44;100804.1;;;19.35;65.61621
59987;BME280;46181;51.498;5.392;2022-09-09T22:13:14;100804.2;;;19.32;65.65723
59987;BME280;46181;51.498;5.392;2022-09-09T22:17:43;100805.2;;;19.28;65.69629
59987;BME280;46181;51.498;5.392;2022-09-09T22:22:13;100815.3;;;19.24;65.74805
59987;BME280;46181;51.498;5.392;2022-09-09T22:26:44;100813;;;19.19;65.78711
59987;BME280;46181;51.498;5.392;2022-09-09T22:31:14;100812.4;;;19.19;65.77441
59987;BME280;46181;51.498;5.392;2022-09-09T22:35:46;100804.9;;;19.13;65.77637
59987;BME280;46181;51.498;5.392;2022-09-09T22:40:15;100797.6;;;19.08;65.85059
59987;BME280;46181;51.498;5.392;2022-09-09T22:44:43;100804.2;;;19.13;65.81152
59987;BME280;46181;51.498;5.392;2022-09-09T22:49:13;100797.5;;;19.1;65.82031
59987;BME280;46181;51.498;5.392;2022-09-09T22:53:44;100804.5;;;19.08;65.87305
59987;BME280;46181;51.498;5.392;2022-09-09T22:58:13;100811.2;;;19.07;65.94238
59987;BME280;46181;51.498;5.392;2022-09-09T23:02:43;100811.2;;;19.08;65.875
59987;BME280;46181;51.498;5.392;2022-09-09T23:07:13;100816.8;;;19.12;65.78809
59987;BME280;46181;51.498;5.392;2022-09-09T23:11:44;100816.9;;;19.14;65.76758